Terminal Aerodrome Forecast
Issued by NWS

Home | Current Version | Previous Version | Text Only | Print | Product List | Glossary On
Versions: 1 2 3 4 5 6 7 8 9 10 11 12 13 14
874
FTPA31 PHFO 190531
TAFHKO
TAF
PHKO 190531Z 1906/2006 01006KT P6SM FEW025 FEW060
     FM191000 VRB05KT P6SM FEW025 FEW060
     FM191900 34016G24KT P6SM FEW025 SCT060
     FM200400 36012KT P6SM FEW025 SCT050=

USA.gov is the U.S. government's official web portal to all federal, state and local government web resources and services.